Latest Weather Observations for Rocky Gully South

IDW60801

Issued at 1:05 pm WST Wednesday 17 September 2014 (issued every 30 minutes, with the page automatically refreshed every 10 minutes)

About weather observations | Map of weather stations | Latest weather observations for WA | Other Formats
Station Details ID: 009964 Name: ROCKY GULLY Lat: -34.57 Lon: 117.01 Height: 250.0 m
Data from the previous 72 hours. | See also: Recent months at Rocky Gully South
Date/Time
WST
Temp
°C
App
Temp
°C
Dew
Point
Rel
Hum
%
Delta-T
°C
Wind Press
QNH
hPa
Press
MSL
hPa
Rain
since 9 am
mm
Dir
 
Spd
km/h
Gust
km/h
Spd
kts
Gust
kts
17/01:00pm 19.0 17.8 9.5 54 5.1 NW 6 11 3 6 - - 0.0
17/12:30pm 18.4 16.9 9.2 55 4.9 NNE 7 11 4 6 - - 0.0
17/12:00pm 17.9 16.5 9.0 56 4.7 NE 6 11 3 6 - - 0.0
17/11:30am 17.5 16.1 9.4 59 4.3 NE 7 13 4 7 - - 0.0
17/11:00am 16.8 14.9 9.0 60 4.1 N 9 17 5 9 - - 0.0
17/10:30am 16.3 14.4 9.0 62 3.8 E 9 15 5 8 - - 0.0
17/10:00am 15.3 13.7 8.8 65 3.4 ENE 7 13 4 7 - - 0.0
17/09:30am 14.5 12.9 8.9 69 2.9 E 7 11 4 6 - - 0.0
17/09:00am 13.3 10.9 8.6 73 2.4 ENE 11 19 6 10 - - 0.0
17/08:30am 12.3 10.3 8.8 79 1.8 ENE 9 17 5 9 - - 0.0
17/08:00am 10.8 9.2 8.9 88 1.0 ESE 7 11 4 6 - - 0.0
17/07:30am 9.2 7.4 8.1 93 0.5 E 7 13 4 7 - - 0.0
17/07:00am 6.5 4.7 5.3 92 0.5 ESE 4 7 2 4 - - 0.0
17/06:30am 7.2 5.1 6.0 92 0.5 E 6 7 3 4 - - 0.0
17/06:00am 7.0 5.3 5.8 92 0.5 ENE 4 7 2 4 - - 0.0
17/05:30am 7.2 5.0 6.0 92 0.5 E 7 11 4 6 - - 0.0
17/05:00am 7.3 5.1 6.1 92 0.6 E 7 11 4 6 - - 0.0
17/04:30am 7.0 4.7 5.8 92 0.5 E 7 11 4 6 - - 0.0
17/04:00am 7.0 4.7 5.8 92 0.5 E 7 11 4 6 - - 0.0
17/03:30am 6.5 4.6 5.1 91 0.6 E 4 7 2 4 - - 0.0
17/03:00am 5.7 3.2 4.0 89 0.7 SE 6 7 3 4 - - 0.0
17/02:30am 6.4 4.8 4.6 88 0.8 E 2 6 1 3 - - 0.0
17/02:00am 8.3 6.3 6.4 88 0.9 ENE 6 9 3 5 - - 0.0
17/01:30am 8.3 5.8 6.6 89 0.8 ENE 9 15 5 8 - - 0.0
17/01:00am 8.2 6.3 6.5 89 0.8 E 6 9 3 5 - - 0.0
17/12:30am 8.5 6.4 6.8 89 0.8 ENE 7 11 4 6 - - 0.0
17/12:00am 8.7 6.9 7.0 89 0.8 E 6 11 3 6 - - 0.0
 
Date/Time
WST
Temp
°C
App
Temp
°C
Dew
Point
Rel
Hum
%
Delta-T
°C
Wind Press
QNH
hPa
Press
MSL
hPa
Rain
since 9 am
mm
Dir
 
Spd
km/h
Gust
km/h
Spd
kts
Gust
kts
16/11:30pm 8.9 6.9 7.2 89 0.8 E 7 11 4 6 - - 0.0
16/11:00pm 9.1 7.4 7.4 89 0.8 E 6 9 3 5 - - 0.0
16/10:30pm 9.0 7.0 7.1 88 0.9 E 7 11 4 6 - - 0.0
16/10:00pm 9.4 7.4 7.3 87 1.0 E 7 11 4 6 - - 0.0
16/09:30pm 9.9 8.0 7.7 86 1.1 ESE 7 11 4 6 - - 0.0
16/09:00pm 10.5 8.7 7.9 84 1.3 E 7 13 4 7 - - 0.0
16/08:30pm 11.0 8.9 8.2 83 1.4 ESE 9 13 5 7 - - 0.0
16/08:00pm 11.6 9.6 8.5 81 1.6 ESE 9 15 5 8 - - 0.0
16/07:30pm 12.3 10.3 8.6 78 1.9 ESE 9 13 5 7 - - 0.0
16/07:00pm 13.1 11.1 8.8 75 2.2 SE 9 17 5 9 - - 0.0
16/06:30pm 14.0 11.6 8.8 71 2.7 SE 11 17 6 9 - - 0.0
16/06:00pm 14.4 12.3 5.7 56 4.2 ESE 6 9 3 5 - - 0.0
16/05:30pm 16.3 14.1 5.3 48 5.3 ENE 6 9 3 5 - - 0.0
16/05:00pm 17.2 14.7 4.9 44 5.9 ENE 7 13 4 7 - - 0.0
16/04:30pm 17.5 14.6 4.8 43 6.1 ENE 9 13 5 7 - - 0.0
16/04:00pm 18.2 16.0 6.1 45 6.0 NE 7 13 4 7 - - 0.0
16/03:30pm 17.9 15.5 5.2 43 6.2 E 7 15 4 8 - - 0.0
16/03:00pm 17.6 14.5 5.5 45 5.9 ENE 11 17 6 9 - - 0.0
16/02:30pm 17.6 14.9 5.5 45 5.9 ENE 9 20 5 11 - - 0.0
16/02:00pm 17.4 14.3 5.4 45 5.9 ENE 11 19 6 10 - - 0.0
16/01:30pm 17.3 14.3 5.9 47 5.6 NNE 11 15 6 8 - - 0.0
16/01:00pm 16.6 14.2 7.0 53 4.8 ENE 9 19 5 10 - - 0.0
16/12:30pm 15.6 13.0 6.3 54 4.6 NE 9 15 5 8 - - 0.0
16/12:00pm 16.4 13.1 6.5 52 4.9 NNE 13 20 7 11 - - 0.0
16/11:30am 16.0 14.1 7.5 57 4.3 NE 7 13 4 7 - - 0.0
16/11:00am 15.1 12.4 7.2 59 3.9 E 11 19 6 10 - - 0.0
16/10:30am 14.6 11.7 6.4 58 4.0 NE 11 20 6 11 - - 0.0
16/10:00am 14.1 11.6 6.7 61 3.6 NE 9 15 5 8 - - 0.0
16/09:30am 13.9 11.7 7.7 66 3.1 NNE 9 19 5 10 - - 0.0
16/09:00am 13.0 10.6 7.2 68 2.9 E 9 19 5 10 - - 0.0
16/08:30am 11.7 10.0 8.2 79 1.7 NE 7 9 4 5 - - 0.0
16/08:00am 9.9 9.3 8.8 93 0.5 ENE 2 7 1 4 - - 0.0
16/07:30am 6.3 4.5 5.3 93 0.4 E 4 7 2 4 - - 0.0
16/07:00am 4.3 2.9 3.4 94 0.4 CALM 0 7 0 4 - - 0.0
16/06:30am 3.4 1.8 2.5 94 0.4 CALM 0 0 0 0 - - 0.0
16/06:00am 3.3 0.9 2.3 93 0.4 ENE 4 7 2 4 - - 0.0
16/05:30am 3.4 1.0 2.4 93 0.4 ENE 4 7 2 4 - - 0.0
16/05:00am 3.1 0.1 2.1 93 0.4 NNE 7 11 4 6 - - 0.0
16/04:30am 3.5 1.9 2.5 93 0.4 CALM 0 0 0 0 - - 0.0
16/04:00am 3.3 0.5 2.3 93 0.4 NE 6 7 3 4 - - 0.0
16/03:30am 3.8 0.9 2.8 93 0.4 NE 7 9 4 5 - - 0.0
16/03:00am 3.2 0.4 2.0 92 0.5 NE 6 7 3 4 - - 0.0
16/02:30am 4.0 1.7 2.8 92 0.5 E 4 7 2 4 - - 0.0
16/02:00am 3.7 0.8 2.5 92 0.5 NE 7 9 4 5 - - 0.0
16/01:30am 3.9 1.2 2.7 92 0.5 NE 6 9 3 5 - - 0.0
16/01:00am 3.9 1.0 2.6 91 0.5 NE 7 9 4 5 - - 0.0
16/12:30am 3.9 1.2 2.4 90 0.6 ENE 6 7 3 4 - - 0.0
16/12:00am 4.2 1.5 2.6 89 0.7 NE 6 9 3 5 - - 0.0
 
Date/Time
WST
Temp
°C
App
Temp
°C
Dew
Point
Rel
Hum
%
Delta-T
°C
Wind Press
QNH
hPa
Press
MSL
hPa
Rain
since 9 am
mm
Dir
 
Spd
km/h
Gust
km/h
Spd
kts
Gust
kts
15/11:30pm 6.6 4.1 4.9 89 0.8 E 7 9 4 5 - - 0.0
15/11:00pm 5.0 2.3 2.9 86 0.9 ENE 6 7 3 4 - - 0.0
15/10:30pm 6.0 3.5 3.8 86 0.9 SE 6 9 3 5 - - 0.0
15/10:00pm 6.6 3.6 3.9 83 1.2 SSE 9 11 5 6 - - 0.0
15/09:30pm 6.8 4.2 3.4 79 1.5 SE 6 9 3 5 - - 0.0
15/09:00pm 7.8 5.4 4.4 79 1.5 ESE 6 9 3 5 - - 0.0
15/08:30pm 8.2 6.1 4.0 75 1.8 ESE 4 7 2 4 - - 0.0
15/08:00pm 9.0 6.1 4.6 74 2.0 SE 9 15 5 8 - - 0.0
15/07:30pm 9.3 6.3 4.3 71 2.2 SE 9 13 5 7 - - 0.0
15/07:00pm 10.1 7.2 4.7 69 2.5 SE 9 13 5 7 - - 0.0
15/06:30pm 10.9 7.7 5.0 67 2.7 SSE 11 15 6 8 - - 0.0
15/06:00pm 11.6 8.8 5.3 65 2.9 SSE 9 15 5 8 - - 0.0
15/05:30pm 12.9 9.0 5.3 60 3.6 SSE 15 22 8 12 - - 0.0
15/05:00pm 13.8 10.8 5.9 59 3.8 S 11 17 6 9 - - 0.0
15/04:30pm 14.6 11.3 6.2 57 4.1 S 13 20 7 11 - - 0.0
15/04:00pm 15.2 11.1 6.2 55 4.4 S 17 22 9 12 - - 0.0
15/03:30pm 15.0 11.3 6.3 56 4.3 SSE 15 24 8 13 - - 0.0
15/03:00pm 16.2 14.0 5.5 49 5.2 SE 6 9 3 5 - - 0.0
15/02:30pm 16.1 13.4 5.7 50 5.1 S 9 15 5 8 - - 0.0
15/02:00pm 15.5 12.5 4.2 47 5.3 SSE 9 15 5 8 - - 0.0
15/01:30pm 16.6 14.4 5.3 47 5.5 WNW 6 9 3 5 - - 0.0
15/01:00pm 15.4 12.9 4.5 48 5.2 W 7 11 4 6 - - 0.0
15/12:30pm 15.8 13.7 6.5 54 4.6 WNW 7 11 4 6 - - 0.0
15/12:00pm 15.7 13.4 5.0 49 5.1 SSW 6 11 3 6 - - 0.0
15/11:30am 15.2 12.8 5.4 52 4.7 NW 7 13 4 7 - - 0.0
15/11:00am 14.6 12.1 4.6 51 4.7 ESE 7 13 4 7 - - 0.0
15/10:30am 12.8 9.8 4.0 55 4.0 S 9 13 5 7 - - 0.0
15/10:00am 14.1 11.5 4.1 51 4.6 SE 7 9 4 5 - - 0.0
15/09:30am 12.8 10.9 6.6 66 3.0 WSW 6 9 3 5 - - 0.0
15/09:00am 12.7 10.0 5.8 63 3.3 WSW 9 19 5 10 - - 1.2
15/08:30am 11.2 9.6 7.9 80 1.6 W 6 7 3 4 - - 1.2
15/08:00am 10.1 9.8 8.7 91 0.7 CALM 0 0 0 0 - - 1.2
15/07:30am 7.5 5.5 6.4 93 0.5 N 6 7 3 4 - - 1.2
15/07:00am 6.6 5.6 5.6 93 0.5 CALM 0 0 0 0 - - 1.2
15/06:30am 6.6 5.6 5.6 93 0.5 CALM 0 0 0 0 - - 1.2
15/06:00am 6.2 4.0 5.2 93 0.4 W 6 7 3 4 - - 1.2
15/05:30am 5.9 4.4 4.9 93 0.4 W 2 6 1 3 - - 1.2
15/05:00am 5.6 3.6 4.6 93 0.4 NW 4 7 2 4 - - 1.2
15/04:30am 5.0 3.7 4.0 93 0.4 CALM 0 0 0 0 - - 1.2
15/04:00am 5.1 3.8 3.9 92 0.5 CALM 0 0 0 0 - - 1.2
15/03:30am 5.7 4.1 4.5 92 0.5 N 2 6 1 3 - - 1.2
15/03:00am 5.7 3.3 4.3 91 0.6 N 6 7 3 4 - - 1.2
15/02:30am 6.6 5.5 5.2 91 0.6 CALM 0 0 0 0 - - 1.2
15/02:00am 6.9 5.9 5.5 91 0.6 CALM 0 0 0 0 - - 1.2
15/01:30am 7.8 7.0 6.4 91 0.6 CALM 0 0 0 0 - - 1.2
15/01:00am 8.2 7.5 7.0 92 0.6 CALM 0 0 0 0 - - 1.2
15/12:30am 8.0 7.3 6.8 92 0.6 CALM 0 6 0 3 - - 1.2
15/12:00am 7.9 7.1 6.5 91 0.7 CALM 0 0 0 0 - - 1.2
 
Date/Time
WST
Temp
°C
App
Temp
°C
Dew
Point
Rel
Hum
%
Delta-T
°C
Wind Press
QNH
hPa
Press
MSL
hPa
Rain
since 9 am
mm
Dir
 
Spd
km/h
Gust
km/h
Spd
kts
Gust
kts
14/11:30pm 8.4 7.3 7.0 91 0.7 SW 2 9 1 5 - - 1.2
14/11:00pm 8.8 8.2 7.4 91 0.7 CALM 0 0 0 0 - - 1.0
14/10:30pm 9.2 7.9 7.6 90 0.8 WSW 4 7 2 4 - - 1.0
14/10:00pm 10.1 8.7 8.7 91 0.7 WSW 6 7 3 4 - - 1.0
14/09:30pm 10.2 9.9 8.6 90 0.8 CALM 0 0 0 0 - - 1.0
14/09:00pm 10.7 10.5 9.1 90 0.8 CALM 0 0 0 0 - - 1.0
14/08:30pm 11.3 11.3 9.7 90 0.8 CALM 0 0 0 0 - - 1.0
14/08:00pm 11.5 11.5 9.9 90 0.8 CALM 0 0 0 0 - - 1.0
14/07:30pm 11.5 10.4 9.9 90 0.8 S 6 9 3 5 - - 1.0
14/07:00pm 11.8 10.7 10.0 89 0.9 S 6 9 3 5 - - 1.0
14/06:30pm 12.1 10.5 10.2 88 1.0 S 9 15 5 8 - - 1.0
14/06:00pm 12.6 10.6 10.1 85 1.3 S 11 17 6 9 - - 1.0
14/05:30pm 12.9 11.7 10.4 85 1.3 S 7 13 4 7 - - 1.0
14/05:00pm 13.2 10.9 10.6 84 1.4 S 13 20 7 11 - - 1.0
14/04:30pm 13.4 10.9 10.9 85 1.3 S 15 24 8 13 - - 1.0
14/04:00pm 13.7 11.2 11.0 84 1.4 S 15 24 8 13 - - 1.0
14/03:30pm 14.2 12.3 11.9 86 1.3 SSW 13 20 7 11 - - 1.0
14/03:00pm 14.4 11.8 12.1 86 1.3 S 17 33 9 18 - - 1.0
14/02:30pm 15.4 13.8 12.9 85 1.4 SW 13 22 7 12 - - 1.0
14/02:00pm 19.0 17.5 10.6 58 4.6 SW 9 13 5 7 - - 0.0
14/01:30pm 18.2 16.2 10.1 59 4.4 WNW 11 20 6 11 - - 0.0

Other Formats:

Comma delimited format used in spreadsheet applications
http://www.bom.gov.au/fwo/IDW60801/IDW60801.94631.axf

JavaScript Object Notation format (JSON) in row-major order
http://www.bom.gov.au/fwo/IDW60801/IDW60801.94631.json